sensor_id;sensor_type;location;lat;lon;timestamp;P1;durP1;ratioP1;P2;durP2;ratioP2
82159;SDS011;77253;50.876;7.372;2024-03-25T00:01:08;8.55;;;2.35;;
82159;SDS011;77253;50.876;7.372;2024-03-25T00:03:33;10.90;;;2.30;;
82159;SDS011;77253;50.876;7.372;2024-03-25T00:06:00;13.32;;;2.55;;
82159;SDS011;77253;50.876;7.372;2024-03-25T00:08:25;9.65;;;1.90;;
82159;SDS011;77253;50.876;7.372;2024-03-25T00:10:52;9.18;;;2.03;;
82159;SDS011;77253;50.876;7.372;2024-03-25T00:13:17;10.20;;;2.40;;
82159;SDS011;77253;50.876;7.372;2024-03-25T00:15:45;8.77;;;2.00;;
82159;SDS011;77253;50.876;7.372;2024-03-25T00:18:10;9.75;;;2.05;;
82159;SDS011;77253;50.876;7.372;2024-03-25T00:20:39;9.43;;;2.28;;
82159;SDS011;77253;50.876;7.372;2024-03-25T00:23:05;14.55;;;2.88;;
82159;SDS011;77253;50.876;7.372;2024-03-25T00:25:32;9.50;;;2.60;;
82159;SDS011;77253;50.876;7.372;2024-03-25T00:27:57;12.93;;;2.47;;
82159;SDS011;77253;50.876;7.372;2024-03-25T00:30:23;8.32;;;2.20;;
82159;SDS011;77253;50.876;7.372;2024-03-25T00:32:49;10.63;;;2.13;;
82159;SDS011;77253;50.876;7.372;2024-03-25T00:35:15;10.23;;;2.20;;
82159;SDS011;77253;50.876;7.372;2024-03-25T00:37:41;8.25;;;2.22;;
82159;SDS011;77253;50.876;7.372;2024-03-25T00:40:08;9.23;;;2.45;;
82159;SDS011;77253;50.876;7.372;2024-03-25T00:42:34;6.68;;;1.88;;
82159;SDS011;77253;50.876;7.372;2024-03-25T00:45:00;8.82;;;1.98;;
82159;SDS011;77253;50.876;7.372;2024-03-25T00:47:26;14.90;;;2.60;;
82159;SDS011;77253;50.876;7.372;2024-03-25T00:49:51;10.43;;;2.22;;
82159;SDS011;77253;50.876;7.372;2024-03-25T00:52:18;9.27;;;2.47;;
82159;SDS011;77253;50.876;7.372;2024-03-25T00:54:43;7.70;;;1.83;;
82159;SDS011;77253;50.876;7.372;2024-03-25T00:57:10;10.75;;;2.33;;
82159;SDS011;77253;50.876;7.372;2024-03-25T00:59:39;11.52;;;2.70;;
82159;SDS011;77253;50.876;7.372;2024-03-25T01:02:06;12.40;;;2.30;;
82159;SDS011;77253;50.876;7.372;2024-03-25T01:04:33;10.38;;;2.30;;
82159;SDS011;77253;50.876;7.372;2024-03-25T01:07:00;9.40;;;2.38;;
82159;SDS011;77253;50.876;7.372;2024-03-25T01:09:25;8.43;;;2.10;;
82159;SDS011;77253;50.876;7.372;2024-03-25T01:11:52;10.52;;;2.63;;
82159;SDS011;77253;50.876;7.372;2024-03-25T01:14:17;10.77;;;2.35;;
82159;SDS011;77253;50.876;7.372;2024-03-25T01:16:43;12.55;;;2.35;;
82159;SDS011;77253;50.876;7.372;2024-03-25T01:19:09;10.20;;;2.25;;
82159;SDS011;77253;50.876;7.372;2024-03-25T01:21:37;14.07;;;2.60;;
82159;SDS011;77253;50.876;7.372;2024-03-25T01:24:03;10.02;;;2.40;;
82159;SDS011;77253;50.876;7.372;2024-03-25T01:26:29;12.52;;;2.25;;
82159;SDS011;77253;50.876;7.372;2024-03-25T01:28:55;9.90;;;2.28;;
82159;SDS011;77253;50.876;7.372;2024-03-25T01:31:21;13.90;;;2.70;;
82159;SDS011;77253;50.876;7.372;2024-03-25T01:33:47;9.68;;;2.35;;
82159;SDS011;77253;50.876;7.372;2024-03-25T01:36:13;9.05;;;2.25;;
82159;SDS011;77253;50.876;7.372;2024-03-25T01:38:42;9.15;;;2.50;;
82159;SDS011;77253;50.876;7.372;2024-03-25T01:41:09;10.73;;;2.40;;
82159;SDS011;77253;50.876;7.372;2024-03-25T01:43:35;10.07;;;3.03;;
82159;SDS011;77253;50.876;7.372;2024-03-25T01:46:02;14.52;;;3.22;;
82159;SDS011;77253;50.876;7.372;2024-03-25T01:48:28;12.48;;;2.85;;
82159;SDS011;77253;50.876;7.372;2024-03-25T01:50:55;12.90;;;2.90;;
82159;SDS011;77253;50.876;7.372;2024-03-25T01:53:21;11.35;;;3.20;;
82159;SDS011;77253;50.876;7.372;2024-03-25T01:55:50;13.45;;;2.75;;
82159;SDS011;77253;50.876;7.372;2024-03-25T01:58:19;8.57;;;2.47;;
82159;SDS011;77253;50.876;7.372;2024-03-25T02:00:45;9.90;;;3.03;;
82159;SDS011;77253;50.876;7.372;2024-03-25T02:03:11;9.93;;;2.35;;
82159;SDS011;77253;50.876;7.372;2024-03-25T02:05:37;11.10;;;2.80;;
82159;SDS011;77253;50.876;7.372;2024-03-25T02:08:06;14.70;;;2.92;;
82159;SDS011;77253;50.876;7.372;2024-03-25T02:10:32;11.60;;;3.20;;
82159;SDS011;77253;50.876;7.372;2024-03-25T02:12:58;9.57;;;2.67;;
82159;SDS011;77253;50.876;7.372;2024-03-25T02:15:25;12.57;;;2.65;;
82159;SDS011;77253;50.876;7.372;2024-03-25T02:17:54;12.27;;;3.13;;
82159;SDS011;77253;50.876;7.372;2024-03-25T02:24:20;16.02;;;2.53;;
82159;SDS011;77253;50.876;7.372;2024-03-25T02:26:50;11.80;;;2.78;;
82159;SDS011;77253;50.876;7.372;2024-03-25T02:29:15;11.25;;;2.58;;
82159;SDS011;77253;50.876;7.372;2024-03-25T02:31:40;11.03;;;2.90;;
82159;SDS011;77253;50.876;7.372;2024-03-25T02:34:07;10.15;;;2.72;;
82159;SDS011;77253;50.876;7.372;2024-03-25T02:36:32;10.57;;;2.15;;
82159;SDS011;77253;50.876;7.372;2024-03-25T02:39:01;12.00;;;2.40;;
82159;SDS011;77253;50.876;7.372;2024-03-25T02:41:26;10.02;;;2.83;;
82159;SDS011;77253;50.876;7.372;2024-03-25T02:43:55;10.38;;;2.53;;
82159;SDS011;77253;50.876;7.372;2024-03-25T02:46:21;10.70;;;2.45;;
82159;SDS011;77253;50.876;7.372;2024-03-25T02:48:48;9.02;;;2.40;;
82159;SDS011;77253;50.876;7.372;2024-03-25T02:51:14;11.88;;;2.33;;
82159;SDS011;77253;50.876;7.372;2024-03-25T02:53:40;9.65;;;2.20;;
82159;SDS011;77253;50.876;7.372;2024-03-25T02:56:05;13.43;;;2.45;;
82159;SDS011;77253;50.876;7.372;2024-03-25T02:58:32;11.10;;;2.05;;
82159;SDS011;77253;50.876;7.372;2024-03-25T03:00:57;11.80;;;1.83;;
82159;SDS011;77253;50.876;7.372;2024-03-25T03:03:24;9.25;;;2.10;;
82159;SDS011;77253;50.876;7.372;2024-03-25T03:05:50;14.30;;;2.33;;
82159;SDS011;77253;50.876;7.372;2024-03-25T03:08:19;9.60;;;2.00;;
82159;SDS011;77253;50.876;7.372;2024-03-25T03:10:44;14.20;;;2.35;;
82159;SDS011;77253;50.876;7.372;2024-03-25T03:13:10;9.60;;;2.13;;
82159;SDS011;77253;50.876;7.372;2024-03-25T03:15:36;10.10;;;2.97;;
82159;SDS011;77253;50.876;7.372;2024-03-25T03:18:02;9.90;;;1.70;;
82159;SDS011;77253;50.876;7.372;2024-03-25T03:20:28;10.50;;;2.30;;
82159;SDS011;77253;50.876;7.372;2024-03-25T03:22:58;8.23;;;2.40;;
82159;SDS011;77253;50.876;7.372;2024-03-25T03:25:23;7.15;;;2.25;;
82159;SDS011;77253;50.876;7.372;2024-03-25T03:27:50;9.20;;;2.28;;
82159;SDS011;77253;50.876;7.372;2024-03-25T03:32:44;10.52;;;2.03;;
82159;SDS011;77253;50.876;7.372;2024-03-25T03:35:10;11.60;;;2.42;;
82159;SDS011;77253;50.876;7.372;2024-03-25T03:37:36;12.10;;;2.28;;
82159;SDS011;77253;50.876;7.372;2024-03-25T03:40:02;12.38;;;2.15;;
82159;SDS011;77253;50.876;7.372;2024-03-25T03:42:37;9.60;;;2.00;;
82159;SDS011;77253;50.876;7.372;2024-03-25T03:45:03;12.23;;;2.50;;
82159;SDS011;77253;50.876;7.372;2024-03-25T03:47:29;12.65;;;2.30;;
82159;SDS011;77253;50.876;7.372;2024-03-25T03:49:55;11.07;;;2.00;;
82159;SDS011;77253;50.876;7.372;2024-03-25T03:52:22;12.77;;;1.90;;
82159;SDS011;77253;50.876;7.372;2024-03-25T03:54:48;14.18;;;2.17;;
82159;SDS011;77253;50.876;7.372;2024-03-25T03:57:14;12.23;;;2.60;;
82159;SDS011;77253;50.876;7.372;2024-03-25T03:59:40;9.82;;;2.40;;
82159;SDS011;77253;50.876;7.372;2024-03-25T04:02:05;10.77;;;2.03;;
82159;SDS011;77253;50.876;7.372;2024-03-25T04:04:32;12.95;;;2.65;;
82159;SDS011;77253;50.876;7.372;2024-03-25T04:06:57;11.40;;;2.35;;
82159;SDS011;77253;50.876;7.372;2024-03-25T04:09:24;10.38;;;2.28;;
82159;SDS011;77253;50.876;7.372;2024-03-25T04:11:49;14.13;;;2.58;;
82159;SDS011;77253;50.876;7.372;2024-03-25T04:14:16;10.57;;;2.42;;
82159;SDS011;77253;50.876;7.372;2024-03-25T04:16:41;13.90;;;2.60;;
82159;SDS011;77253;50.876;7.372;2024-03-25T04:19:07;10.52;;;3.63;;
82159;SDS011;77253;50.876;7.372;2024-03-25T04:21:33;8.68;;;2.50;;
82159;SDS011;77253;50.876;7.372;2024-03-25T04:23:59;21.33;;;3.22;;
82159;SDS011;77253;50.876;7.372;2024-03-25T04:26:25;13.23;;;2.78;;
82159;SDS011;77253;50.876;7.372;2024-03-25T04:28:51;11.15;;;2.60;;
82159;SDS011;77253;50.876;7.372;2024-03-25T04:31:17;10.90;;;3.13;;
82159;SDS011;77253;50.876;7.372;2024-03-25T04:33:43;10.00;;;2.97;;
82159;SDS011;77253;50.876;7.372;2024-03-25T04:36:08;12.23;;;2.90;;
82159;SDS011;77253;50.876;7.372;2024-03-25T04:38:35;8.20;;;2.33;;
82159;SDS011;77253;50.876;7.372;2024-03-25T04:41:00;9.50;;;2.65;;
82159;SDS011;77253;50.876;7.372;2024-03-25T04:43:26;9.25;;;2.55;;
82159;SDS011;77253;50.876;7.372;2024-03-25T04:45:51;12.75;;;2.85;;
82159;SDS011;77253;50.876;7.372;2024-03-25T04:48:16;10.82;;;2.88;;
82159;SDS011;77253;50.876;7.372;2024-03-25T04:50:42;7.72;;;2.60;;
82159;SDS011;77253;50.876;7.372;2024-03-25T04:53:07;12.02;;;3.15;;
82159;SDS011;77253;50.876;7.372;2024-03-25T04:55:33;11.30;;;2.90;;
82159;SDS011;77253;50.876;7.372;2024-03-25T04:57:58;12.45;;;2.50;;
82159;SDS011;77253;50.876;7.372;2024-03-25T05:00:24;11.75;;;3.30;;
82159;SDS011;77253;50.876;7.372;2024-03-25T05:02:49;12.38;;;3.00;;
82159;SDS011;77253;50.876;7.372;2024-03-25T05:05:14;10.48;;;2.53;;
82159;SDS011;77253;50.876;7.372;2024-03-25T05:07:40;12.93;;;2.97;;
82159;SDS011;77253;50.876;7.372;2024-03-25T05:10:05;10.80;;;3.00;;
82159;SDS011;77253;50.876;7.372;2024-03-25T05:12:31;11.88;;;2.72;;
82159;SDS011;77253;50.876;7.372;2024-03-25T05:14:57;10.30;;;2.40;;
82159;SDS011;77253;50.876;7.372;2024-03-25T05:17:22;12.63;;;2.67;;
82159;SDS011;77253;50.876;7.372;2024-03-25T05:19:48;9.48;;;2.97;;
82159;SDS011;77253;50.876;7.372;2024-03-25T05:22:14;11.73;;;2.85;;
82159;SDS011;77253;50.876;7.372;2024-03-25T05:24:39;11.05;;;3.30;;
82159;SDS011;77253;50.876;7.372;2024-03-25T05:27:04;9.45;;;2.78;;
82159;SDS011;77253;50.876;7.372;2024-03-25T05:29:30;13.18;;;3.00;;
82159;SDS011;77253;50.876;7.372;2024-03-25T05:32:00;10.02;;;2.55;;
82159;SDS011;77253;50.876;7.372;2024-03-25T05:34:27;15.20;;;3.17;;
82159;SDS011;77253;50.876;7.372;2024-03-25T05:36:53;9.63;;;3.30;;
82159;SDS011;77253;50.876;7.372;2024-03-25T05:39:19;12.27;;;3.40;;
82159;SDS011;77253;50.876;7.372;2024-03-25T05:41:45;15.38;;;3.25;;
82159;SDS011;77253;50.876;7.372;2024-03-25T05:44:11;15.82;;;3.78;;
82159;SDS011;77253;50.876;7.372;2024-03-25T05:46:37;10.90;;;3.28;;
82159;SDS011;77253;50.876;7.372;2024-03-25T05:49:03;10.45;;;3.47;;
82159;SDS011;77253;50.876;7.372;2024-03-25T05:51:30;12.73;;;2.92;;
82159;SDS011;77253;50.876;7.372;2024-03-25T05:53:56;14.57;;;3.20;;
82159;SDS011;77253;50.876;7.372;2024-03-25T05:56:21;10.38;;;3.03;;
82159;SDS011;77253;50.876;7.372;2024-03-25T05:58:47;11.93;;;3.13;;
82159;SDS011;77253;50.876;7.372;2024-03-25T06:01:13;13.15;;;3.55;;
82159;SDS011;77253;50.876;7.372;2024-03-25T06:03:38;9.07;;;2.80;;
82159;SDS011;77253;50.876;7.372;2024-03-25T06:06:04;11.05;;;3.47;;
82159;SDS011;77253;50.876;7.372;2024-03-25T06:08:29;9.85;;;3.03;;
82159;SDS011;77253;50.876;7.372;2024-03-25T06:11:00;11.73;;;2.90;;
82159;SDS011;77253;50.876;7.372;2024-03-25T06:13:26;12.05;;;3.08;;
82159;SDS011;77253;50.876;7.372;2024-03-25T06:15:51;11.68;;;3.08;;
82159;SDS011;77253;50.876;7.372;2024-03-25T06:18:17;10.00;;;2.78;;
82159;SDS011;77253;50.876;7.372;2024-03-25T06:20:42;10.80;;;2.92;;
82159;SDS011;77253;50.876;7.372;2024-03-25T06:23:07;10.57;;;2.80;;
82159;SDS011;77253;50.876;7.372;2024-03-25T06:25:33;9.82;;;2.80;;
82159;SDS011;77253;50.876;7.372;2024-03-25T06:27:58;8.45;;;2.72;;
82159;SDS011;77253;50.876;7.372;2024-03-25T06:30:24;9.73;;;2.70;;
82159;SDS011;77253;50.876;7.372;2024-03-25T06:33:08;9.88;;;2.38;;
82159;SDS011;77253;50.876;7.372;2024-03-25T06:35:52;9.95;;;2.92;;
82159;SDS011;77253;50.876;7.372;2024-03-25T06:38:17;8.98;;;2.38;;
82159;SDS011;77253;50.876;7.372;2024-03-25T06:40:44;10.00;;;2.97;;
82159;SDS011;77253;50.876;7.372;2024-03-25T06:43:10;10.70;;;2.88;;
82159;SDS011;77253;50.876;7.372;2024-03-25T06:45:36;9.80;;;2.53;;
82159;SDS011;77253;50.876;7.372;2024-03-25T06:48:01;10.90;;;2.53;;
82159;SDS011;77253;50.876;7.372;2024-03-25T06:50:26;13.27;;;2.67;;
82159;SDS011;77253;50.876;7.372;2024-03-25T06:52:52;16.50;;;3.22;;
82159;SDS011;77253;50.876;7.372;2024-03-25T06:55:18;12.40;;;2.47;;
82159;SDS011;77253;50.876;7.372;2024-03-25T06:57:58;11.98;;;2.30;;
82159;SDS011;77253;50.876;7.372;2024-03-25T07:03:12;9.43;;;2.55;;
82159;SDS011;77253;50.876;7.372;2024-03-25T07:05:37;14.15;;;2.65;;
82159;SDS011;77253;50.876;7.372;2024-03-25T07:08:03;11.20;;;2.40;;
82159;SDS011;77253;50.876;7.372;2024-03-25T07:10:28;9.70;;;2.22;;
82159;SDS011;77253;50.876;7.372;2024-03-25T07:12:54;10.57;;;2.38;;
82159;SDS011;77253;50.876;7.372;2024-03-25T07:15:19;10.55;;;2.20;;
82159;SDS011;77253;50.876;7.372;2024-03-25T07:17:45;11.05;;;2.10;;
82159;SDS011;77253;50.876;7.372;2024-03-25T07:20:10;10.05;;;2.50;;
82159;SDS011;77253;50.876;7.372;2024-03-25T07:22:36;9.10;;;2.38;;
82159;SDS011;77253;50.876;7.372;2024-03-25T07:25:01;12.20;;;2.90;;
82159;SDS011;77253;50.876;7.372;2024-03-25T07:27:27;13.07;;;2.80;;
82159;SDS011;77253;50.876;7.372;2024-03-25T07:29:52;8.23;;;2.10;;
82159;SDS011;77253;50.876;7.372;2024-03-25T07:32:17;10.40;;;2.42;;
82159;SDS011;77253;50.876;7.372;2024-03-25T07:34:43;12.05;;;2.67;;
82159;SDS011;77253;50.876;7.372;2024-03-25T07:37:08;9.13;;;2.22;;
82159;SDS011;77253;50.876;7.372;2024-03-25T07:39:34;11.77;;;2.22;;
82159;SDS011;77253;50.876;7.372;2024-03-25T07:41:59;9.77;;;2.40;;
82159;SDS011;77253;50.876;7.372;2024-03-25T07:44:25;12.77;;;2.50;;
82159;SDS011;77253;50.876;7.372;2024-03-25T07:46:50;9.23;;;2.40;;
82159;SDS011;77253;50.876;7.372;2024-03-25T07:49:16;12.73;;;2.58;;
82159;SDS011;77253;50.876;7.372;2024-03-25T07:51:41;8.88;;;2.67;;
82159;SDS011;77253;50.876;7.372;2024-03-25T07:54:07;16.40;;;2.83;;
82159;SDS011;77253;50.876;7.372;2024-03-25T07:56:32;11.90;;;2.63;;
82159;SDS011;77253;50.876;7.372;2024-03-25T07:58:57;10.88;;;2.55;;
82159;SDS011;77253;50.876;7.372;2024-03-25T08:01:23;12.93;;;3.17;;
82159;SDS011;77253;50.876;7.372;2024-03-25T08:03:48;10.77;;;2.70;;
82159;SDS011;77253;50.876;7.372;2024-03-25T08:06:14;10.02;;;2.45;;
82159;SDS011;77253;50.876;7.372;2024-03-25T08:08:39;12.90;;;2.53;;
82159;SDS011;77253;50.876;7.372;2024-03-25T08:11:08;10.40;;;2.25;;
82159;SDS011;77253;50.876;7.372;2024-03-25T08:13:33;13.93;;;2.67;;
82159;SDS011;77253;50.876;7.372;2024-03-25T08:15:59;11.32;;;2.30;;
82159;SDS011;77253;50.876;7.372;2024-03-25T08:18:24;10.05;;;2.90;;
82159;SDS011;77253;50.876;7.372;2024-03-25T08:20:49;9.93;;;2.45;;
82159;SDS011;77253;50.876;7.372;2024-03-25T08:23:15;10.18;;;2.58;;
82159;SDS011;77253;50.876;7.372;2024-03-25T08:25:44;12.07;;;3.28;;
82159;SDS011;77253;50.876;7.372;2024-03-25T08:28:09;11.77;;;2.33;;
82159;SDS011;77253;50.876;7.372;2024-03-25T08:30:35;11.43;;;2.72;;
82159;SDS011;77253;50.876;7.372;2024-03-25T08:33:00;11.73;;;2.42;;
82159;SDS011;77253;50.876;7.372;2024-03-25T08:35:25;11.13;;;2.65;;
82159;SDS011;77253;50.876;7.372;2024-03-25T08:37:51;10.20;;;2.13;;
82159;SDS011;77253;50.876;7.372;2024-03-25T08:40:16;8.88;;;2.10;;
82159;SDS011;77253;50.876;7.372;2024-03-25T08:42:42;10.23;;;2.00;;
82159;SDS011;77253;50.876;7.372;2024-03-25T08:45:07;13.15;;;2.35;;
82159;SDS011;77253;50.876;7.372;2024-03-25T08:47:33;11.27;;;2.05;;
82159;SDS011;77253;50.876;7.372;2024-03-25T08:49:58;10.55;;;2.03;;
82159;SDS011;77253;50.876;7.372;2024-03-25T08:52:23;8.90;;;1.35;;
82159;SDS011;77253;50.876;7.372;2024-03-25T08:54:49;9.75;;;1.50;;
82159;SDS011;77253;50.876;7.372;2024-03-25T08:57:14;9.95;;;1.40;;
82159;SDS011;77253;50.876;7.372;2024-03-25T08:59:40;8.82;;;1.50;;
82159;SDS011;77253;50.876;7.372;2024-03-25T09:02:05;12.27;;;1.60;;
82159;SDS011;77253;50.876;7.372;2024-03-25T09:04:31;8.40;;;1.70;;
82159;SDS011;77253;50.876;7.372;2024-03-25T09:06:56;8.65;;;1.33;;
82159;SDS011;77253;50.876;7.372;2024-03-25T09:09:22;7.13;;;1.60;;
82159;SDS011;77253;50.876;7.372;2024-03-25T09:14:31;9.13;;;1.45;;
82159;SDS011;77253;50.876;7.372;2024-03-25T09:17:11;8.52;;;1.50;;
82159;SDS011;77253;50.876;7.372;2024-03-25T09:19:37;8.68;;;1.75;;
82159;SDS011;77253;50.876;7.372;2024-03-25T09:22:02;9.50;;;1.30;;
82159;SDS011;77253;50.876;7.372;2024-03-25T09:24:28;6.15;;;1.38;;
82159;SDS011;77253;50.876;7.372;2024-03-25T09:26:53;8.05;;;1.45;;
82159;SDS011;77253;50.876;7.372;2024-03-25T09:29:19;7.55;;;1.33;;
82159;SDS011;77253;50.876;7.372;2024-03-25T09:31:44;7.38;;;1.33;;
82159;SDS011;77253;50.876;7.372;2024-03-25T09:34:09;7.15;;;1.80;;
82159;SDS011;77253;50.876;7.372;2024-03-25T09:36:35;5.60;;;1.58;;
82159;SDS011;77253;50.876;7.372;2024-03-25T09:39:00;11.52;;;1.50;;
82159;SDS011;77253;50.876;7.372;2024-03-25T09:45:05;8.82;;;1.83;;
82159;SDS011;77253;50.876;7.372;2024-03-25T09:47:54;7.10;;;1.80;;
82159;SDS011;77253;50.876;7.372;2024-03-25T09:50:20;7.30;;;1.38;;
82159;SDS011;77253;50.876;7.372;2024-03-25T09:52:47;6.38;;;1.65;;
82159;SDS011;77253;50.876;7.372;2024-03-25T09:55:13;6.35;;;1.40;;
82159;SDS011;77253;50.876;7.372;2024-03-25T09:57:39;6.18;;;1.45;;
82159;SDS011;77253;50.876;7.372;2024-03-25T10:00:05;7.97;;;1.55;;
82159;SDS011;77253;50.876;7.372;2024-03-25T10:02:32;6.07;;;1.50;;
82159;SDS011;77253;50.876;7.372;2024-03-25T10:04:59;7.90;;;1.75;;
82159;SDS011;77253;50.876;7.372;2024-03-25T10:07:25;6.13;;;1.30;;
82159;SDS011;77253;50.876;7.372;2024-03-25T10:12:21;9.40;;;2.35;;
82159;SDS011;77253;50.876;7.372;2024-03-25T10:14:55;6.30;;;1.50;;
82159;SDS011;77253;50.876;7.372;2024-03-25T10:17:20;5.55;;;1.48;;
82159;SDS011;77253;50.876;7.372;2024-03-25T10:19:46;7.28;;;1.60;;
82159;SDS011;77253;50.876;7.372;2024-03-25T10:22:12;7.43;;;1.30;;
82159;SDS011;77253;50.876;7.372;2024-03-25T10:24:41;5.57;;;1.30;;
82159;SDS011;77253;50.876;7.372;2024-03-25T10:29:47;5.38;;;1.30;;
82159;SDS011;77253;50.876;7.372;2024-03-25T10:32:13;6.30;;;1.45;;
82159;SDS011;77253;50.876;7.372;2024-03-25T10:34:40;7.45;;;1.35;;
82159;SDS011;77253;50.876;7.372;2024-03-25T10:37:07;5.78;;;1.33;;
82159;SDS011;77253;50.876;7.372;2024-03-25T10:39:35;6.35;;;1.40;;
82159;SDS011;77253;50.876;7.372;2024-03-25T10:42:13;6.43;;;1.58;;
82159;SDS011;77253;50.876;7.372;2024-03-25T10:44:43;6.85;;;1.23;;
82159;SDS011;77253;50.876;7.372;2024-03-25T10:47:09;6.85;;;1.30;;
82159;SDS011;77253;50.876;7.372;2024-03-25T10:52:15;6.75;;;1.45;;
82159;SDS011;77253;50.876;7.372;2024-03-25T10:54:42;8.02;;;1.48;;
82159;SDS011;77253;50.876;7.372;2024-03-25T10:57:12;5.45;;;1.10;;
82159;SDS011;77253;50.876;7.372;2024-03-25T10:59:38;8.38;;;1.50;;
82159;SDS011;77253;50.876;7.372;2024-03-25T11:05:12;5.70;;;1.40;;
82159;SDS011;77253;50.876;7.372;2024-03-25T11:07:37;7.68;;;1.63;;
82159;SDS011;77253;50.876;7.372;2024-03-25T11:10:04;5.90;;;1.08;;
82159;SDS011;77253;50.876;7.372;2024-03-25T11:12:37;4.45;;;0.95;;
82159;SDS011;77253;50.876;7.372;2024-03-25T11:15:06;6.32;;;1.20;;
82159;SDS011;77253;50.876;7.372;2024-03-25T11:17:47;5.57;;;1.02;;
82159;SDS011;77253;50.876;7.372;2024-03-25T11:20:22;6.80;;;1.17;;
82159;SDS011;77253;50.876;7.372;2024-03-25T11:22:48;4.82;;;1.20;;
82159;SDS011;77253;50.876;7.372;2024-03-25T11:25:17;4.63;;;0.80;;
82159;SDS011;77253;50.876;7.372;2024-03-25T11:27:43;4.93;;;0.95;;
82159;SDS011;77253;50.876;7.372;2024-03-25T11:30:13;3.97;;;0.85;;
82159;SDS011;77253;50.876;7.372;2024-03-25T11:32:46;4.38;;;0.90;;
82159;SDS011;77253;50.876;7.372;2024-03-25T11:35:16;3.38;;;0.93;;
82159;SDS011;77253;50.876;7.372;2024-03-25T11:37:55;5.45;;;1.13;;
82159;SDS011;77253;50.876;7.372;2024-03-25T11:50:36;5.72;;;1.23;;
82159;SDS011;77253;50.876;7.372;2024-03-25T11:53:03;7.20;;;1.10;;
82159;SDS011;77253;50.876;7.372;2024-03-25T11:55:30;7.38;;;1.30;;
82159;SDS011;77253;50.876;7.372;2024-03-25T11:57:56;8.68;;;1.40;;
82159;SDS011;77253;50.876;7.372;2024-03-25T12:00:21;4.15;;;1.23;;
82159;SDS011;77253;50.876;7.372;2024-03-25T12:02:47;5.80;;;1.30;;
82159;SDS011;77253;50.876;7.372;2024-03-25T12:05:13;4.55;;;1.15;;
82159;SDS011;77253;50.876;7.372;2024-03-25T12:10:36;4.68;;;0.90;;
82159;SDS011;77253;50.876;7.372;2024-03-25T12:13:20;5.38;;;1.38;;
82159;SDS011;77253;50.876;7.372;2024-03-25T12:15:47;4.15;;;1.20;;
82159;SDS011;77253;50.876;7.372;2024-03-25T12:18:14;5.15;;;1.20;;
82159;SDS011;77253;50.876;7.372;2024-03-25T12:20:40;4.35;;;1.00;;
82159;SDS011;77253;50.876;7.372;2024-03-25T12:23:06;4.55;;;1.20;;
82159;SDS011;77253;50.876;7.372;2024-03-25T12:25:32;6.25;;;1.50;;
82159;SDS011;77253;50.876;7.372;2024-03-25T12:27:58;6.10;;;1.50;;
82159;SDS011;77253;50.876;7.372;2024-03-25T12:30:24;8.27;;;1.30;;
82159;SDS011;77253;50.876;7.372;2024-03-25T12:32:50;4.57;;;1.35;;
82159;SDS011;77253;50.876;7.372;2024-03-25T12:35:17;5.55;;;1.27;;
82159;SDS011;77253;50.876;7.372;2024-03-25T12:37:47;5.40;;;1.15;;
82159;SDS011;77253;50.876;7.372;2024-03-25T12:40:26;4.55;;;1.17;;
82159;SDS011;77253;50.876;7.372;2024-03-25T12:43:08;7.45;;;1.20;;
82159;SDS011;77253;50.876;7.372;2024-03-25T12:45:33;4.43;;;0.98;;
82159;SDS011;77253;50.876;7.372;2024-03-25T12:47:59;4.95;;;0.90;;
82159;SDS011;77253;50.876;7.372;2024-03-25T12:50:24;4.47;;;1.05;;
82159;SDS011;77253;50.876;7.372;2024-03-25T12:52:49;3.75;;;0.90;;
82159;SDS011;77253;50.876;7.372;2024-03-25T12:55:24;6.05;;;1.15;;
82159;SDS011;77253;50.876;7.372;2024-03-25T12:57:50;3.78;;;1.10;;
82159;SDS011;77253;50.876;7.372;2024-03-25T13:00:15;3.25;;;1.00;;
82159;SDS011;77253;50.876;7.372;2024-03-25T13:02:41;6.55;;;1.30;;
82159;SDS011;77253;50.876;7.372;2024-03-25T13:05:07;5.95;;;1.10;;
82159;SDS011;77253;50.876;7.372;2024-03-25T13:07:32;3.80;;;1.00;;
82159;SDS011;77253;50.876;7.372;2024-03-25T13:09:58;3.25;;;0.95;;
82159;SDS011;77253;50.876;7.372;2024-03-25T13:12:23;4.65;;;0.98;;
82159;SDS011;77253;50.876;7.372;2024-03-25T13:15:00;3.85;;;1.15;;
82159;SDS011;77253;50.876;7.372;2024-03-25T13:17:25;4.75;;;1.30;;
82159;SDS011;77253;50.876;7.372;2024-03-25T13:19:51;5.50;;;1.30;;
82159;SDS011;77253;50.876;7.372;2024-03-25T13:22:16;6.25;;;1.13;;
82159;SDS011;77253;50.876;7.372;2024-03-25T13:24:42;4.43;;;0.88;;
82159;SDS011;77253;50.876;7.372;2024-03-25T13:27:07;3.20;;;0.85;;
82159;SDS011;77253;50.876;7.372;2024-03-25T13:29:33;2.70;;;0.93;;
82159;SDS011;77253;50.876;7.372;2024-03-25T13:31:59;5.40;;;1.38;;
82159;SDS011;77253;50.876;7.372;2024-03-25T13:34:24;4.72;;;0.95;;
82159;SDS011;77253;50.876;7.372;2024-03-25T13:36:50;4.90;;;1.15;;
82159;SDS011;77253;50.876;7.372;2024-03-25T13:39:15;5.70;;;1.45;;
82159;SDS011;77253;50.876;7.372;2024-03-25T13:41:41;5.60;;;1.20;;
82159;SDS011;77253;50.876;7.372;2024-03-25T13:44:06;5.18;;;1.00;;
82159;SDS011;77253;50.876;7.372;2024-03-25T13:46:31;4.90;;;1.30;;
82159;SDS011;77253;50.876;7.372;2024-03-25T13:48:57;4.82;;;1.25;;
82159;SDS011;77253;50.876;7.372;2024-03-25T13:51:22;5.47;;;1.52;;
82159;SDS011;77253;50.876;7.372;2024-03-25T13:53:48;3.88;;;1.23;;
82159;SDS011;77253;50.876;7.372;2024-03-25T13:56:13;4.30;;;1.08;;
82159;SDS011;77253;50.876;7.372;2024-03-25T13:58:39;2.78;;;0.98;;
82159;SDS011;77253;50.876;7.372;2024-03-25T14:01:04;4.43;;;1.10;;
82159;SDS011;77253;50.876;7.372;2024-03-25T14:03:30;3.85;;;0.93;;
82159;SDS011;77253;50.876;7.372;2024-03-25T14:05:55;4.78;;;0.90;;
82159;SDS011;77253;50.876;7.372;2024-03-25T14:08:20;3.25;;;1.00;;
82159;SDS011;77253;50.876;7.372;2024-03-25T14:11:07;4.55;;;1.13;;
82159;SDS011;77253;50.876;7.372;2024-03-25T14:13:32;3.85;;;1.05;;
82159;SDS011;77253;50.876;7.372;2024-03-25T14:15:57;3.60;;;0.90;;
82159;SDS011;77253;50.876;7.372;2024-03-25T14:18:23;5.00;;;1.17;;
82159;SDS011;77253;50.876;7.372;2024-03-25T14:20:51;5.05;;;1.00;;
82159;SDS011;77253;50.876;7.372;2024-03-25T14:23:18;4.43;;;1.08;;
82159;SDS011;77253;50.876;7.372;2024-03-25T14:25:43;4.70;;;1.05;;
82159;SDS011;77253;50.876;7.372;2024-03-25T14:28:10;4.85;;;1.20;;
82159;SDS011;77253;50.876;7.372;2024-03-25T14:30:35;6.07;;;1.30;;
82159;SDS011;77253;50.876;7.372;2024-03-25T14:33:01;3.83;;;0.90;;
82159;SDS011;77253;50.876;7.372;2024-03-25T14:35:27;4.85;;;0.93;;
82159;SDS011;77253;50.876;7.372;2024-03-25T14:37:52;3.88;;;1.00;;
82159;SDS011;77253;50.876;7.372;2024-03-25T14:40:17;5.55;;;1.02;;
82159;SDS011;77253;50.876;7.372;2024-03-25T14:42:43;3.15;;;1.00;;
82159;SDS011;77253;50.876;7.372;2024-03-25T14:45:09;4.00;;;1.00;;
82159;SDS011;77253;50.876;7.372;2024-03-25T14:47:34;5.35;;;0.90;;
82159;SDS011;77253;50.876;7.372;2024-03-25T14:50:00;6.07;;;1.13;;
82159;SDS011;77253;50.876;7.372;2024-03-25T14:52:25;5.75;;;1.15;;
82159;SDS011;77253;50.876;7.372;2024-03-25T14:54:51;4.70;;;1.15;;
82159;SDS011;77253;50.876;7.372;2024-03-25T14:57:16;5.55;;;1.00;;
82159;SDS011;77253;50.876;7.372;2024-03-25T14:59:42;4.82;;;1.08;;
82159;SDS011;77253;50.876;7.372;2024-03-25T15:02:08;4.28;;;1.00;;
82159;SDS011;77253;50.876;7.372;2024-03-25T15:04:33;3.80;;;0.90;;
82159;SDS011;77253;50.876;7.372;2024-03-25T15:06:59;4.80;;;1.40;;
82159;SDS011;77253;50.876;7.372;2024-03-25T15:09:24;3.35;;;1.00;;
82159;SDS011;77253;50.876;7.372;2024-03-25T15:11:50;3.63;;;0.80;;
82159;SDS011;77253;50.876;7.372;2024-03-25T15:14:15;5.25;;;1.27;;
82159;SDS011;77253;50.876;7.372;2024-03-25T15:16:41;5.45;;;1.10;;
82159;SDS011;77253;50.876;7.372;2024-03-25T15:19:06;3.83;;;1.00;;